createdAt,value
2019-05-02T00:00:29.980Z,96992.84
2019-05-02T00:02:59.853Z,96991.91
2019-05-02T00:05:27.448Z,96993.73
2019-05-02T00:08:04.877Z,96987.97
2019-05-02T00:10:28.835Z,96983.75
2019-05-02T00:12:55.745Z,96981.17
2019-05-02T00:15:22.565Z,96983.24
2019-05-02T00:17:52.080Z,96979.73
2019-05-02T00:20:25.752Z,96974.42
2019-05-02T00:22:52.324Z,96975.54
2019-05-02T00:25:24.738Z,96976.74
2019-05-02T00:27:53.414Z,96975.14
2019-05-02T00:30:25.024Z,96975.69
2019-05-02T00:32:58.347Z,96975.94
2019-05-02T00:35:27.082Z,96971.16
2019-05-02T00:37:57.341Z,96979.32
2019-05-02T00:40:25.736Z,96969.06
2019-05-02T00:42:53.270Z,96972.94
2019-05-02T00:45:24.076Z,96972.11
2019-05-02T00:47:49.766Z,96968.94
2019-05-02T00:50:16.429Z,96968.80
2019-05-02T00:52:43.135Z,96974.94
2019-05-02T00:55:10.291Z,96969.52
2019-05-02T00:57:36.939Z,96970.30
2019-05-02T01:00:03.775Z,96967.70
2019-05-02T01:02:30.628Z,96963.48
2019-05-02T01:04:59.282Z,96960.77
2019-05-02T01:07:26.920Z,96957.09
2019-05-02T01:09:54.465Z,96953.45
2019-05-02T01:12:26.564Z,96954.84
2019-05-02T01:14:49.775Z,96953.06
2019-05-02T01:17:16.432Z,96958.00
2019-05-02T01:19:47.362Z,96952.88
2019-05-02T01:22:16.002Z,96951.55
2019-05-02T01:24:41.685Z,96956.66
2019-05-02T01:27:09.172Z,96944.86
2019-05-02T01:29:35.743Z,96946.51
2019-05-02T01:32:02.633Z,96948.25
2019-05-02T01:34:29.522Z,96945.13
2019-05-02T01:36:56.399Z,96939.55
2019-05-02T01:39:23.295Z,96940.46
2019-05-02T01:41:50.916Z,96941.39
2019-05-02T01:44:17.691Z,96935.06
2019-05-02T01:46:44.341Z,96933.23
2019-05-02T01:49:10.938Z,96930.39
2019-05-02T01:51:42.049Z,96927.56
2019-05-02T01:54:09.987Z,96922.34
2019-05-02T01:56:37.112Z,96929.37
2019-05-02T01:59:03.724Z,96925.67
2019-05-02T02:01:30.342Z,96925.17
2019-05-02T02:03:57.317Z,96921.78
2019-05-02T02:06:23.987Z,96922.80
2019-05-02T02:08:50.864Z,96913.90
2019-05-02T02:11:17.469Z,96915.30
2019-05-02T02:13:44.092Z,96910.85
2019-05-02T02:16:11.106Z,96907.70
2019-05-02T02:18:37.865Z,96915.56
2019-05-02T02:21:04.592Z,96908.95
2019-05-02T02:23:31.356Z,96909.19
2019-05-02T02:25:58.904Z,96912.69
2019-05-02T02:28:25.517Z,96916.23
2019-05-02T02:30:57.687Z,96922.96
2019-05-02T02:33:21.649Z,96929.37
2019-05-02T02:35:50.329Z,96920.69
2019-05-02T02:38:16.658Z,96921.04
2019-05-02T02:40:43.249Z,96917.85
2019-05-02T02:43:32.248Z,96915.24
2019-05-02T02:45:39.141Z,96921.65
2019-05-02T02:48:05.742Z,96923.17
2019-05-02T02:50:42.853Z,96926.78
2019-05-02T02:53:05.434Z,96924.78
2019-05-02T02:55:32.342Z,96920.47
2019-05-02T02:58:04.677Z,96923.78
2019-05-02T03:00:28.326Z,96922.58
2019-05-02T03:02:57.367Z,96921.99
2019-05-02T03:05:25.863Z,96916.84
2019-05-02T03:07:52.578Z,96923.00
2019-05-02T03:10:22.147Z,96922.11
2019-05-02T03:12:48.477Z,96919.84
2019-05-02T03:15:21.204Z,96913.05
2019-05-02T03:17:47.298Z,96920.02
2019-05-02T03:20:16.919Z,96916.84
2019-05-02T03:22:43.701Z,96916.31
2019-05-02T03:25:18.002Z,96916.97
2019-05-02T03:27:46.819Z,96920.70
2019-05-02T03:30:29.570Z,96922.48
2019-05-02T03:33:03.012Z,96918.58
2019-05-02T03:35:19.701Z,96921.45
2019-05-02T03:37:51.385Z,96929.31
2019-05-02T03:40:21.953Z,96912.39
2019-05-02T03:42:49.503Z,96915.51
2019-05-02T03:45:17.792Z,96917.72
2019-05-02T03:47:48.698Z,96919.00
2019-05-02T03:50:31.683Z,96912.67
2019-05-02T03:52:48.552Z,96921.64
2019-05-02T03:55:23.619Z,96917.17
2019-05-02T03:57:45.478Z,96925.74
2019-05-02T04:00:20.576Z,96918.74
2019-05-02T04:02:46.836Z,96918.75
2019-05-02T04:05:19.619Z,96922.00
2019-05-02T04:07:46.193Z,96924.16
2019-05-02T04:10:19.305Z,96926.42
2019-05-02T04:12:45.248Z,96922.88
2019-05-02T04:15:12.130Z,96928.06
2019-05-02T04:17:40.912Z,96929.25
2019-05-02T04:20:10.204Z,96927.81
2019-05-02T04:22:42.609Z,96933.26
2019-05-02T04:25:06.412Z,96928.89
2019-05-02T04:27:34.202Z,96933.59
2019-05-02T04:30:09.802Z,96935.16
2019-05-02T04:32:32.035Z,96929.94
2019-05-02T04:35:00.040Z,96937.90
2019-05-02T04:37:26.655Z,96931.84
2019-05-02T04:40:00.709Z,96932.67
2019-05-02T04:42:24.144Z,96929.47
2019-05-02T04:45:14.129Z,96930.98
2019-05-02T04:47:22.346Z,96934.55
2019-05-02T04:49:52.039Z,96933.89
2019-05-02T04:52:38.465Z,96928.22
2019-05-02T04:55:17.101Z,96929.69
2019-05-02T04:57:41.084Z,96930.25
2019-05-02T05:00:08.575Z,96934.91
2019-05-02T05:02:36.469Z,96933.40
2019-05-02T05:05:02.938Z,96930.22
2019-05-02T05:07:40.052Z,96932.35
2019-05-02T05:10:02.999Z,96929.37
2019-05-02T05:12:32.472Z,96926.80
2019-05-02T05:15:00.482Z,96935.27
2019-05-02T05:17:32.479Z,96929.09
2019-05-02T05:20:00.169Z,96922.06
2019-05-02T05:22:29.261Z,96924.13
2019-05-02T05:24:58.101Z,96922.47
2019-05-02T05:27:24.487Z,96929.72
2019-05-02T05:29:53.677Z,96932.91
2019-05-02T05:32:19.709Z,96928.75
2019-05-02T05:34:47.781Z,96930.44
2019-05-02T05:37:17.302Z,96929.47
2019-05-02T05:39:50.904Z,96936.37
2019-05-02T05:42:14.719Z,96924.02
2019-05-02T05:44:41.320Z,96932.95
2019-05-02T05:47:12.248Z,96933.05
2019-05-02T05:49:40.407Z,96929.66
2019-05-02T05:52:08.081Z,96932.39
2019-05-02T05:54:40.478Z,96929.30
2019-05-02T05:57:03.476Z,96922.77
2019-05-02T05:59:32.061Z,96923.59
2019-05-02T06:02:05.307Z,96923.56
2019-05-02T06:04:33.129Z,96922.64
2019-05-02T06:06:59.547Z,96922.16
2019-05-02T06:09:31.084Z,96915.88
2019-05-02T06:11:58.828Z,96915.94
2019-05-02T06:14:27.861Z,96918.36
2019-05-02T06:16:54.937Z,96913.69
2019-05-02T06:19:23.899Z,96914.02
2019-05-02T06:21:54.856Z,96916.52
2019-05-02T06:24:22.468Z,96906.95
2019-05-02T06:26:51.720Z,96908.05
2019-05-02T06:29:20.597Z,96895.52
2019-05-02T06:31:50.654Z,96905.67
2019-05-02T06:34:18.233Z,96893.97
2019-05-02T06:36:48.504Z,96903.45
2019-05-02T06:39:15.368Z,96901.09
2019-05-02T06:41:45.947Z,96900.48
2019-05-02T06:44:18.651Z,96901.94
2019-05-02T06:46:46.924Z,96901.28
2019-05-02T06:49:17.062Z,96897.11
2019-05-02T06:51:45.702Z,96894.17
2019-05-02T06:54:18.061Z,96889.94
2019-05-02T06:56:47.862Z,96887.80
2019-05-02T06:59:18.473Z,96893.20
2019-05-02T07:01:43.115Z,96887.95
2019-05-02T07:04:10.244Z,96889.02
2019-05-02T07:06:55.982Z,96885.81
2019-05-02T07:09:09.067Z,96875.64
2019-05-02T07:11:40.945Z,96879.38
2019-05-02T07:14:13.417Z,96878.58
2019-05-02T07:16:38.829Z,96878.55
2019-05-02T07:19:04.439Z,96874.48
2019-05-02T07:21:33.123Z,96868.37
2019-05-02T07:24:03.421Z,96869.72
2019-05-02T07:26:34.901Z,96873.17
2019-05-02T07:29:07.701Z,96873.61
2019-05-02T07:31:36.633Z,96869.58
2019-05-02T07:34:08.044Z,96867.43
2019-05-02T07:36:38.360Z,96862.34
2019-05-02T07:39:07.593Z,96862.66
2019-05-02T07:41:37.250Z,96863.19
2019-05-02T07:44:06.075Z,96862.34
2019-05-02T07:46:51.605Z,96858.87
2019-05-02T07:49:12.891Z,96857.23
2019-05-02T07:51:44.631Z,96854.80
2019-05-02T07:54:13.625Z,96857.67
2019-05-02T07:56:48.620Z,96856.53
2019-05-02T07:59:18.705Z,96852.58
2019-05-02T08:01:44.914Z,96851.50
2019-05-02T08:04:18.067Z,96856.52
2019-05-02T08:06:46.445Z,96852.55
2019-05-02T08:09:13.450Z,96855.52
2019-05-02T08:11:45.979Z,96851.28
2019-05-02T08:14:18.915Z,96843.77
2019-05-02T08:16:45.848Z,96846.69
2019-05-02T08:19:17.110Z,96840.41
2019-05-02T08:21:43.925Z,96838.52
2019-05-02T08:24:12.047Z,96838.63
2019-05-02T08:26:39.457Z,96837.01
2019-05-02T08:29:06.533Z,96833.97
2019-05-02T08:31:36.370Z,96837.05
2019-05-02T08:34:14.398Z,96836.24
2019-05-02T08:36:37.090Z,96831.77
2019-05-02T08:39:05.974Z,96824.44
2019-05-02T08:41:36.650Z,96826.93
2019-05-02T08:44:03.984Z,96828.34
2019-05-02T08:49:23.906Z,96822.27
2019-05-02T08:51:55.972Z,96819.84
2019-05-02T08:54:23.255Z,96822.98
2019-05-02T08:56:58.721Z,96818.50
2019-05-02T08:59:26.077Z,96818.67
2019-05-02T09:01:53.871Z,96819.42
2019-05-02T09:07:12.527Z,96818.84
2019-05-02T09:09:40.498Z,96816.34
2019-05-02T09:12:15.086Z,96804.83
2019-05-02T09:14:45.299Z,96810.06
2019-05-02T09:17:16.727Z,96815.37
2019-05-02T09:19:58.683Z,96803.06
2019-05-02T09:22:16.775Z,96802.97
2019-05-02T09:24:45.355Z,96795.13
2019-05-02T09:27:12.442Z,96797.64
2019-05-02T09:29:49.078Z,96784.72
2019-05-02T09:32:22.839Z,96790.56
2019-05-02T09:34:56.581Z,96784.11
2019-05-02T09:37:27.393Z,96784.61
2019-05-02T09:39:54.325Z,96785.20
2019-05-02T09:42:24.782Z,96775.45
2019-05-02T09:44:56.854Z,96774.23
2019-05-02T09:47:27.461Z,96769.64
2019-05-02T09:49:53.199Z,96772.16
2019-05-02T09:52:22.991Z,96768.52
2019-05-02T09:54:51.854Z,96763.69
2019-05-02T09:57:22.616Z,96758.50
2019-05-02T09:59:55.797Z,96756.52
2019-05-02T10:02:22.814Z,96761.47
2019-05-02T10:04:52.946Z,96758.94
2019-05-02T10:07:27.001Z,96748.47
2019-05-02T10:10:02.522Z,96744.48
2019-05-02T10:12:25.459Z,96742.66
2019-05-02T10:14:52.739Z,96744.06
2019-05-02T10:17:23.248Z,96746.34
2019-05-02T10:19:57.057Z,96734.20
2019-05-02T10:22:26.685Z,96728.78
2019-05-02T10:24:55.779Z,96737.70
2019-05-02T10:27:29.136Z,96725.83
2019-05-02T10:30:08.097Z,96724.09
2019-05-02T10:32:32.386Z,96715.53
2019-05-02T10:35:02.106Z,96712.43
2019-05-02T10:37:37.677Z,96709.60
2019-05-02T10:39:59.975Z,96698.42
2019-05-02T10:42:26.895Z,96696.81
2019-05-02T10:44:56.050Z,96696.62
2019-05-02T10:47:22.736Z,96692.80
2019-05-02T10:49:49.610Z,96683.89
2019-05-02T10:52:21.571Z,96690.63
2019-05-02T10:54:49.661Z,96682.65
2019-05-02T10:57:21.867Z,96674.55
2019-05-02T10:59:48.624Z,96679.88
2019-05-02T11:02:15.482Z,96673.95
2019-05-02T11:04:43.792Z,96671.38
2019-05-02T11:07:21.915Z,96660.75
2019-05-02T11:09:42.272Z,96657.02
2019-05-02T11:12:09.439Z,96658.69
2019-05-02T11:14:42.082Z,96650.15
2019-05-02T11:17:15.945Z,96655.80
2019-05-02T11:19:42.001Z,96658.75
2019-05-02T11:22:12.195Z,96653.23
2019-05-02T11:24:38.960Z,96641.39
2019-05-02T11:27:08.188Z,96638.09
2019-05-02T11:29:36.642Z,96637.41
2019-05-02T11:32:03.548Z,96635.75
2019-05-02T11:34:37.696Z,96637.47
2019-05-02T11:37:05.065Z,96625.78
2019-05-02T11:39:42.753Z,96624.39
2019-05-02T11:42:04.638Z,96608.83
2019-05-02T11:44:33.753Z,96612.44
2019-05-02T11:47:03.792Z,96610.44
2019-05-02T11:49:31.956Z,96609.02
2019-05-02T11:52:03.779Z,96603.67
2019-05-02T11:54:34.050Z,96597.48
2019-05-02T11:57:03.918Z,96601.45
2019-05-02T11:59:33.019Z,96594.08
2019-05-02T12:02:02.705Z,96589.48
2019-05-02T12:04:32.464Z,96588.13
2019-05-02T12:07:01.474Z,96588.71
2019-05-02T12:09:31.829Z,96586.70
2019-05-02T12:12:05.506Z,96580.48
2019-05-02T12:14:36.401Z,96577.57
2019-05-02T12:17:03.311Z,96576.39
2019-05-02T12:19:33.885Z,96577.00
2019-05-02T12:22:02.612Z,96564.39
2019-05-02T12:24:31.895Z,96565.20
2019-05-02T12:26:59.940Z,96569.45
2019-05-02T12:29:30.104Z,96561.08
2019-05-02T12:31:56.993Z,96562.41
2019-05-02T12:34:26.184Z,96551.72
2019-05-02T12:36:55.481Z,96550.31
2019-05-02T12:39:22.336Z,96552.23
2019-05-02T12:41:49.388Z,96544.17
2019-05-02T12:44:16.813Z,96538.95
2019-05-02T12:46:43.654Z,96543.35
2019-05-02T12:49:22.644Z,96532.83
2019-05-02T12:51:39.183Z,96537.42
2019-05-02T12:54:06.064Z,96535.19
2019-05-02T12:56:32.994Z,96525.16
2019-05-02T12:59:02.161Z,96515.15
2019-05-02T13:01:28.714Z,96516.97
2019-05-02T13:03:55.574Z,96516.30
2019-05-02T13:06:22.753Z,96514.55
2019-05-02T13:08:49.348Z,96510.93
2019-05-02T13:11:16.201Z,96511.45
2019-05-02T13:13:43.680Z,96509.58
2019-05-02T13:16:12.195Z,96504.11
2019-05-02T13:18:39.271Z,96491.86
2019-05-02T13:21:08.110Z,96491.46
2019-05-02T13:23:37.178Z,96492.92
2019-05-02T13:26:10.057Z,96494.61
2019-05-02T13:28:32.462Z,96497.72
2019-05-02T13:30:59.430Z,96487.21
2019-05-02T13:33:27.380Z,96481.80
2019-05-02T13:35:54.957Z,96462.94
2019-05-02T13:38:22.431Z,96463.42
2019-05-02T13:40:49.391Z,96467.92
2019-05-02T13:43:18.015Z,96461.30
2019-05-02T13:45:45.644Z,96456.66
2019-05-02T13:48:12.887Z,96447.78
2019-05-02T13:50:42.271Z,96448.78
2019-05-02T13:53:12.145Z,96442.84
2019-05-02T13:55:39.252Z,96438.58
2019-05-02T13:58:11.372Z,96431.77
2019-05-02T14:00:36.370Z,96438.12
2019-05-02T14:03:03.882Z,96433.13
2019-05-02T14:05:32.979Z,96431.59
2019-05-02T14:08:01.821Z,96422.96
2019-05-02T14:10:33.754Z,96411.91
2019-05-02T14:12:58.387Z,96410.55
2019-05-02T14:15:25.389Z,96407.25
2019-05-02T14:17:52.616Z,96401.88
2019-05-02T14:20:22.190Z,96406.00
2019-05-02T14:22:48.526Z,96402.25
2019-05-02T14:25:18.015Z,96400.20
2019-05-02T14:27:46.921Z,96395.02
2019-05-02T14:30:15.038Z,96392.39
2019-05-02T14:32:44.465Z,96395.99
2019-05-02T14:35:12.571Z,96389.92
2019-05-02T14:37:42.094Z,96385.38
2019-05-02T14:40:11.194Z,96384.29
2019-05-02T14:42:41.925Z,96379.16
2019-05-02T14:45:24.136Z,96372.13
2019-05-02T14:47:37.490Z,96368.59
2019-05-02T14:50:05.255Z,96361.41
2019-05-02T14:52:32.680Z,96359.12
2019-05-02T14:54:59.609Z,96353.08
2019-05-02T14:57:27.304Z,96348.29
2019-05-02T14:59:59.197Z,96348.84
2019-05-02T15:02:23.038Z,96341.63
2019-05-02T15:04:52.299Z,96347.80
2019-05-02T15:07:22.957Z,96342.13
2019-05-02T15:09:47.862Z,96343.34
2019-05-02T15:12:18.897Z,96342.80
2019-05-02T15:14:43.328Z,96340.78
2019-05-02T15:17:11.983Z,96340.52
2019-05-02T15:19:38.530Z,96338.05
2019-05-02T15:22:05.310Z,96329.12
2019-05-02T15:24:36.141Z,96331.81
2019-05-02T15:27:03.913Z,96331.01
2019-05-02T15:29:29.373Z,96328.54
2019-05-02T15:31:57.889Z,96323.98
2019-05-02T15:34:26.191Z,96323.78
2019-05-02T15:36:53.059Z,96333.05
2019-05-02T15:41:48.824Z,96325.00
2019-05-02T15:44:18.956Z,96317.09
2019-05-02T15:46:44.378Z,96314.81
2019-05-02T15:49:12.289Z,96311.86
2019-05-02T15:51:43.688Z,96308.06
2019-05-02T15:54:09.009Z,96305.08
2019-05-02T15:56:36.050Z,96298.75
2019-05-02T15:59:06.201Z,96301.60
2019-05-02T16:01:32.091Z,96300.28
2019-05-02T16:03:59.220Z,96298.60
2019-05-02T16:06:31.679Z,96299.27
2019-05-02T16:08:54.772Z,96294.31
2019-05-02T16:11:22.990Z,96293.60
2019-05-02T16:13:52.724Z,96292.73
2019-05-02T16:16:18.608Z,96290.92
2019-05-02T16:18:45.520Z,96284.20
2019-05-02T16:21:12.248Z,96286.31
2019-05-02T16:23:39.113Z,96283.92
2019-05-02T16:26:08.727Z,96281.55
2019-05-02T16:28:36.967Z,96280.98
2019-05-02T16:31:03.183Z,96274.34
2019-05-02T16:33:31.801Z,96275.21
2019-05-02T16:35:59.471Z,96272.34
2019-05-02T16:38:26.872Z,96282.87
2019-05-02T16:40:54.710Z,96276.71
2019-05-02T16:43:22.279Z,96277.23
2019-05-02T16:45:52.473Z,96262.33
2019-05-02T16:48:19.468Z,96259.63
2019-05-02T16:50:46.356Z,96262.84
2019-05-02T16:53:17.190Z,96270.30
2019-05-02T16:55:43.681Z,96263.43
2019-05-02T16:58:11.843Z,96267.02
2019-05-02T17:00:42.523Z,96272.20
2019-05-02T17:03:07.750Z,96266.23
2019-05-02T17:05:34.612Z,96271.48
2019-05-02T17:08:02.311Z,96272.78
2019-05-02T17:10:29.451Z,96267.92
2019-05-02T17:13:12.640Z,96268.63
2019-05-02T17:20:46.949Z,96279.01
2019-05-02T17:23:13.837Z,96279.30
2019-05-02T17:25:41.615Z,96276.48
2019-05-02T17:28:11.223Z,96273.08
2019-05-02T17:30:40.416Z,96281.75
2019-05-02T17:33:07.124Z,96284.91
2019-05-02T17:35:35.127Z,96288.64
2019-05-02T17:38:02.535Z,96288.87
2019-05-02T17:40:29.556Z,96289.51
2019-05-02T17:42:57.062Z,96289.02
2019-05-02T17:45:26.254Z,96292.36
2019-05-02T17:47:53.200Z,96296.40
2019-05-02T17:50:21.991Z,96294.75
2019-05-02T17:52:48.677Z,96301.33
2019-05-02T17:55:15.655Z,96297.27
2019-05-02T17:57:42.257Z,96301.00
2019-05-02T18:00:13.134Z,96298.76
2019-05-02T18:02:38.031Z,96306.44
2019-05-02T18:05:04.941Z,96303.67
2019-05-02T18:07:36.034Z,96306.81
2019-05-02T18:10:07.858Z,96303.23
2019-05-02T18:12:30.056Z,96312.43
2019-05-02T18:14:59.058Z,96312.70
2019-05-02T18:17:27.802Z,96311.68
2019-05-02T18:19:56.733Z,96314.43
2019-05-02T18:22:26.406Z,96320.58
2019-05-02T18:24:52.729Z,96315.34
2019-05-02T18:27:19.681Z,96323.33
2019-05-02T18:29:46.653Z,96317.02
2019-05-02T18:32:17.514Z,96334.44
2019-05-02T18:34:41.993Z,96332.74
2019-05-02T18:37:08.833Z,96324.12
2019-05-02T18:39:42.605Z,96333.66
2019-05-02T18:44:42.042Z,96349.77
2019-05-02T18:47:12.543Z,96350.94
2019-05-02T18:49:41.877Z,96345.41
2019-05-02T18:52:09.303Z,96349.41
2019-05-02T18:54:38.660Z,96348.14
2019-05-02T18:57:04.805Z,96356.61
2019-05-02T18:59:32.079Z,96363.08
2019-05-02T19:01:59.828Z,96360.63
2019-05-02T19:04:34.855Z,96364.95
2019-05-02T19:06:55.120Z,96358.72
2019-05-02T19:09:29.836Z,96362.44
2019-05-02T19:12:04.802Z,96360.10
2019-05-02T19:14:25.977Z,96365.08
2019-05-02T19:16:52.663Z,96369.48
2019-05-02T19:19:22.526Z,96367.41
2019-05-02T19:21:49.309Z,96371.77
2019-05-02T19:24:16.166Z,96374.45
2019-05-02T19:26:49.250Z,96378.50
2019-05-02T19:29:17.101Z,96383.41
2019-05-02T19:31:46.150Z,96386.83
2019-05-02T19:34:16.951Z,96385.22
2019-05-02T19:36:44.382Z,96384.05
2019-05-02T19:39:11.807Z,96383.77
2019-05-02T19:41:47.740Z,96378.95
2019-05-02T19:44:15.456Z,96387.89
2019-05-02T19:46:45.992Z,96381.22
2019-05-02T19:49:16.202Z,96383.75
2019-05-02T19:51:45.073Z,96388.03
2019-05-02T19:54:16.376Z,96375.78
2019-05-02T19:56:47.474Z,96377.20
2019-05-02T19:59:16.699Z,96381.10
2019-05-02T20:01:45.973Z,96377.97
2019-05-02T20:04:15.908Z,96382.31
2019-05-02T20:06:45.163Z,96383.13
2019-05-02T20:09:22.968Z,96384.48
2019-05-02T20:11:53.809Z,96391.75
2019-05-02T20:14:22.047Z,96388.58
2019-05-02T20:16:49.734Z,96387.09
2019-05-02T20:19:17.280Z,96386.02
2019-05-02T20:21:45.265Z,96388.44
2019-05-02T20:24:17.481Z,96382.80
2019-05-02T20:26:41.756Z,96386.22
2019-05-02T20:29:08.834Z,96386.42
2019-05-02T20:31:35.475Z,96379.55
2019-05-02T20:34:03.252Z,96378.02
2019-05-02T20:36:32.102Z,96371.89
2019-05-02T20:38:59.066Z,96381.24
2019-05-02T20:41:27.173Z,96382.80
2019-05-02T20:43:53.743Z,96382.88
2019-05-02T20:46:22.092Z,96378.95
2019-05-02T20:48:49.212Z,96376.77
2019-05-02T20:51:16.338Z,96376.03
2019-05-02T20:53:42.953Z,96381.40
2019-05-02T20:56:09.737Z,96381.11
2019-05-02T20:58:36.485Z,96378.45
2019-05-02T21:01:08.501Z,96376.33
2019-05-02T21:03:32.115Z,96373.41
2019-05-02T21:05:59.134Z,96375.83
2019-05-02T21:08:25.817Z,96376.91
2019-05-02T21:10:53.235Z,96379.06
2019-05-02T21:13:21.979Z,96381.19
2019-05-02T21:15:48.800Z,96374.54
2019-05-02T21:18:15.415Z,96381.46
2019-05-02T21:20:42.400Z,96386.52
2019-05-02T21:23:09.068Z,96391.57
2019-05-02T21:25:35.700Z,96386.27
2019-05-02T21:28:02.846Z,96384.94
2019-05-02T21:30:29.512Z,96392.36
2019-05-02T21:32:56.499Z,96396.14
2019-05-02T21:35:23.316Z,96396.36
2019-05-02T21:37:50.168Z,96399.86
2019-05-02T21:40:17.021Z,96400.37
2019-05-02T21:42:43.710Z,96402.27
2019-05-02T21:45:14.038Z,96404.11
2019-05-02T21:50:29.555Z,96395.06
2019-05-02T21:52:56.178Z,96402.00
2019-05-02T21:55:23.148Z,96402.78
2019-05-02T21:57:49.803Z,96402.74
2019-05-02T22:00:16.403Z,96405.73
2019-05-02T22:02:43.006Z,96406.52
2019-05-02T22:05:10.301Z,96408.65
2019-05-02T22:07:36.927Z,96409.16
2019-05-02T22:10:03.537Z,96415.83
2019-05-02T22:12:31.755Z,96414.75
2019-05-02T22:14:58.698Z,96414.75
2019-05-02T22:17:26.111Z,96418.50
2019-05-02T22:19:53.195Z,96415.55
2019-05-02T22:22:20.074Z,96413.35
2019-05-02T22:24:47.016Z,96411.98
2019-05-02T22:27:14.049Z,96407.36
2019-05-02T22:29:42.903Z,96412.30
2019-05-02T22:32:09.269Z,96409.59
2019-05-02T22:34:35.958Z,96400.74
2019-05-02T22:37:02.885Z,96409.88
2019-05-02T22:39:32.059Z,96419.77
2019-05-02T22:41:58.837Z,96411.02
2019-05-02T22:44:25.825Z,96417.23
2019-05-02T22:46:55.212Z,96418.29
2019-05-02T22:49:26.256Z,96424.73
2019-05-02T22:51:55.779Z,96422.91
2019-05-02T22:54:30.352Z,96420.81
2019-05-02T22:56:55.743Z,96432.32
2019-05-02T22:59:23.991Z,96423.23
2019-05-02T23:01:53.299Z,96414.20
2019-05-02T23:04:24.100Z,96418.46
2019-05-02T23:06:52.739Z,96415.53
2019-05-02T23:09:24.331Z,96416.08
2019-05-02T23:11:54.658Z,96413.41
2019-05-02T23:14:22.306Z,96403.79
2019-05-02T23:16:53.125Z,96404.63
2019-05-02T23:19:23.442Z,96400.11
2019-05-02T23:21:54.149Z,96402.77
2019-05-02T23:24:35.983Z,96398.00
2019-05-02T23:26:55.448Z,96399.85
2019-05-02T23:29:23.429Z,96405.13
2019-05-02T23:31:51.779Z,96393.92
2019-05-02T23:34:27.016Z,96387.75
2019-05-02T23:36:54.786Z,96385.38
2019-05-02T23:39:22.461Z,96381.11
2019-05-02T23:41:52.466Z,96386.48
2019-05-02T23:44:25.721Z,96384.34
2019-05-02T23:46:54.964Z,96383.55
2019-05-02T23:49:25.645Z,96382.24
2019-05-02T23:52:05.970Z,96382.27
2019-05-02T23:54:33.029Z,96385.47
2019-05-02T23:56:59.661Z,96379.06
2019-05-02T23:59:28.742Z,96377.74
